Time;durP1;ratioP1;P1;durP2;ratioP2;P2;SDS_P1;SDS_P2;PMS_P1;PMS_P2;Temp;Humidity;BMP_temperature;BMP_pressure;BME280_temperature;BME280_humidity;BME280_pressure;Samples;Min_cycle;Max_cycle;Signal;HPM_P1;HPM_P2
2021/01/25 00:01:11;;;;;;;33.78;20.67;;;2.70;99.90;;;;;;5034369;28;20033;-90
2021/01/25 00:03:42;;;;;;;36.33;20.35;;;2.70;99.90;;;;;;5034491;28;20026;-90
2021/01/25 00:06:08;;;;;;;32.28;19.58;;;2.70;99.90;;;;;;5001774;28;20037;-90
2021/01/25 00:08:33;;;;;;;34.35;20.08;;;2.80;99.90;;;;;;5017505;28;20022;-90
2021/01/25 00:11:01;;;;;;;33.35;20.08;;;2.80;99.90;;;;;;5034281;28;20079;-90
2021/01/25 00:13:27;;;;;;;39.47;22.33;;;2.80;99.90;;;;;;5017326;28;20029;-89
2021/01/25 00:15:53;;;;;;;36.50;20.30;;;2.80;99.90;;;;;;5033169;28;20448;-90
2021/01/25 00:18:19;;;;;;;30.80;20.40;;;2.70;99.90;;;;;;5033989;28;20037;-89
2021/01/25 00:20:44;;;;;;;36.53;20.73;;;2.70;99.90;;;;;;5033921;28;20034;-89
2021/01/25 00:23:10;;;;;;;33.67;20.55;;;2.80;99.90;;;;;;5035437;28;20379;-90
2021/01/25 00:25:36;;;;;;;30.65;19.73;;;2.80;99.90;;;;;;5016945;28;20040;-88
2021/01/25 00:28:01;;;;;;;38.38;20.25;;;2.90;99.90;;;;;;5017445;28;20066;-87
2021/01/25 00:30:30;;;;;;;38.90;21.88;;;2.80;99.90;;;;;;5033896;28;20025;-88
2021/01/25 00:32:56;;;;;;;40.92;22.27;;;2.70;99.90;;;;;;5017814;28;20029;-88
2021/01/25 00:35:22;;;;;;;37.97;22.15;;;2.60;99.90;;;;;;5021381;28;20033;-88
2021/01/25 00:37:48;;;;;;;37.03;21.85;;;2.60;99.90;;;;;;5047872;28;20010;-89
2021/01/25 00:40:14;;;;;;;47.63;26.88;;;2.60;99.90;;;;;;5043601;28;20030;-89
2021/01/25 00:42:39;;;;;;;37.90;23.35;;;2.60;99.90;;;;;;5034293;28;20083;-89
2021/01/25 00:45:08;;;;;;;41.65;22.02;;;2.60;99.90;;;;;;5033047;28;20442;-89
2021/01/25 00:47:34;;;;;;;40.20;24.13;;;2.60;99.90;;;;;;5033152;28;20026;-90
2021/01/25 00:50:01;;;;;;;36.35;23.35;;;2.60;99.90;;;;;;5033702;28;20029;-89
2021/01/25 00:52:26;;;;;;;41.17;24.63;;;2.60;99.90;;;;;;5033289;28;20025;-89
2021/01/25 00:54:52;;;;;;;35.63;22.85;;;2.70;99.90;;;;;;5000607;28;20044;-89
2021/01/25 00:57:18;;;;;;;43.55;24.58;;;2.60;99.90;;;;;;5016449;28;20033;-90
2021/01/25 00:59:44;;;;;;;49.08;27.40;;;2.50;99.90;;;;;;5033796;28;20112;-89
2021/01/25 01:02:11;;;;;;;45.25;27.55;;;2.50;99.90;;;;;;5034402;28;20121;-89
2021/01/25 01:04:36;;;;;;;57.03;28.83;;;2.40;99.90;;;;;;5034848;28;20474;-89
2021/01/25 01:07:03;;;;;;;50.85;26.85;;;2.30;99.90;;;;;;5034618;28;20038;-89
2021/01/25 01:09:28;;;;;;;50.78;28.13;;;2.30;99.90;;;;;;5032963;28;20037;-89
2021/01/25 01:11:54;;;;;;;44.00;26.55;;;2.40;99.90;;;;;;5016859;28;20025;-89
2021/01/25 01:14:20;;;;;;;43.85;26.20;;;2.60;99.90;;;;;;5033625;28;20356;-88
2021/01/25 01:16:45;;;;;;;45.72;26.17;;;2.50;99.90;;;;;;5032665;28;20434;-89
2021/01/25 01:19:11;;;;;;;47.60;27.98;;;2.60;99.90;;;;;;5016641;28;20376;-89
2021/01/25 01:21:37;;;;;;;46.05;26.98;;;2.60;99.90;;;;;;5032854;28;20030;-89
2021/01/25 01:24:03;;;;;;;43.42;25.63;;;2.70;99.90;;;;;;5033451;28;20112;-88
2021/01/25 01:26:29;;;;;;;41.55;25.40;;;2.60;99.90;;;;;;5033044;28;20030;-89
2021/01/25 01:28:55;;;;;;;42.63;27.38;;;2.60;99.90;;;;;;5032791;28;20436;-89
2021/01/25 01:31:25;;;;;;;53.10;27.50;;;2.60;99.90;;;;;;5034232;28;20021;-89
2021/01/25 01:33:50;;;;;;;46.95;27.20;;;2.50;99.90;;;;;;5000278;28;20034;-89
2021/01/25 01:36:16;;;;;;;48.08;28.15;;;2.40;99.90;;;;;;5033995;28;20103;-89
2021/01/25 01:38:45;;;;;;;44.70;27.33;;;2.50;99.90;;;;;;5000310;28;20037;-89
2021/01/25 01:41:10;;;;;;;45.90;27.15;;;2.60;99.90;;;;;;5032916;28;20025;-89
2021/01/25 01:43:36;;;;;;;44.10;27.38;;;2.60;99.90;;;;;;5032848;28;20040;-89
2021/01/25 01:46:02;;;;;;;44.00;27.30;;;2.70;99.90;;;;;;5033545;28;20073;-89
2021/01/25 01:48:28;;;;;;;43.78;27.00;;;2.80;99.90;;;;;;5033251;28;20159;-89
2021/01/25 01:50:55;;;;;;;45.08;26.58;;;2.90;99.90;;;;;;5034803;28;20147;-89
2021/01/25 01:53:21;;;;;;;42.88;26.10;;;2.90;99.90;;;;;;5033455;28;20021;-89
2021/01/25 01:55:50;;;;;;;44.40;26.55;;;2.80;99.90;;;;;;5032393;28;20025;-89
2021/01/25 01:58:16;;;;;;;47.67;29.27;;;2.80;99.90;;;;;;5033842;28;20471;-89
2021/01/25 02:00:42;;;;;;;45.00;25.92;;;2.80;99.90;;;;;;5033925;28;20093;-90
2021/01/25 02:03:09;;;;;;;54.65;29.90;;;2.80;99.90;;;;;;5033955;28;20175;-89
2021/01/25 02:05:35;;;;;;;42.70;26.02;;;2.60;99.90;;;;;;5016768;28;20033;-89
2021/01/25 02:08:02;;;;;;;48.30;28.35;;;2.50;99.90;;;;;;5018100;28;20345;-89
2021/01/25 02:10:29;;;;;;;44.92;27.95;;;2.60;99.90;;;;;;5035503;28;20025;-89
2021/01/25 02:13:02;;;;;;;49.28;27.00;;;2.70;99.90;;;;;;5035996;28;20127;-89
2021/01/25 02:15:30;;;;;;;46.38;27.95;;;2.70;99.90;;;;;;5036621;28;20029;-89
2021/01/25 02:17:55;;;;;;;47.28;28.00;;;2.50;99.90;;;;;;5036894;28;20114;-89
2021/01/25 02:20:22;;;;;;;45.83;26.00;;;2.60;99.90;;;;;;5025100;28;20119;-89
2021/01/25 02:23:22;;;;;;;46.70;26.48;;;2.60;99.90;;;;;;5046496;28;20021;-90
2021/01/25 02:26:02;;;;;;;47.00;27.20;;;2.60;99.90;;;;;;5041861;28;20025;-89
2021/01/25 02:28:29;;;;;;;49.65;26.42;;;2.70;99.90;;;;;;5045864;28;20128;-89
2021/01/25 02:30:55;;;;;;;53.55;30.40;;;2.60;99.90;;;;;;5056452;28;20036;-89
2021/01/25 02:33:22;;;;;;;46.80;27.42;;;2.60;99.90;;;;;;5023038;28;20014;-89
2021/01/25 02:35:48;;;;;;;50.25;27.35;;;2.60;99.90;;;;;;5022304;28;20022;-90
2021/01/25 02:38:15;;;;;;;46.20;25.40;;;2.70;99.90;;;;;;5054995;28;20033;-89
2021/01/25 02:40:46;;;;;;;45.05;26.60;;;2.60;99.90;;;;;;5049779;28;20552;-89
2021/01/25 02:43:13;;;;;;;45.40;27.10;;;2.60;99.90;;;;;;5044943;28;20029;-89
2021/01/25 02:45:42;;;;;;;45.47;28.35;;;2.50;99.90;;;;;;5056348;28;20043;-88
2021/01/25 02:48:08;;;;;;;43.55;25.38;;;2.40;99.90;;;;;;5056796;28;20033;-89
2021/01/25 02:50:34;;;;;;;43.83;26.98;;;2.40;99.90;;;;;;5056396;28;20018;-89
2021/01/25 02:53:05;;;;;;;44.25;27.60;;;2.50;99.90;;;;;;5039481;28;20048;-88
2021/01/25 02:55:32;;;;;;;40.58;26.50;;;2.60;99.90;;;;;;5056494;28;20010;-89
2021/01/25 02:57:58;;;;;;;45.80;26.05;;;2.50;99.90;;;;;;5055964;28;20033;-89
2021/01/25 03:00:24;;;;;;;47.10;27.58;;;2.40;99.90;;;;;;5035459;28;20364;-89
2021/01/25 03:02:52;;;;;;;41.47;27.33;;;2.50;99.90;;;;;;5027759;28;20029;-90
2021/01/25 03:05:18;;;;;;;43.42;26.38;;;2.50;99.90;;;;;;5023856;28;20144;-89
2021/01/25 03:07:44;;;;;;;45.55;26.20;;;2.50;99.90;;;;;;5022058;28;20111;-89
2021/01/25 03:10:10;;;;;;;46.15;26.63;;;2.50;99.90;;;;;;5022472;28;20120;-89
2021/01/25 03:12:36;;;;;;;43.33;26.80;;;2.60;99.90;;;;;;5038827;28;20030;-90
2021/01/25 03:15:05;;;;;;;45.40;26.75;;;2.60;99.90;;;;;;5037205;28;20057;-90
2021/01/25 03:17:33;;;;;;;42.45;27.38;;;2.50;99.90;;;;;;5019653;28;20116;-90
2021/01/25 03:19:59;;;;;;;50.60;27.20;;;2.50;99.90;;;;;;5036592;28;20033;-89
2021/01/25 03:22:25;;;;;;;52.72;28.77;;;2.40;99.90;;;;;;5019119;28;20075;-89
2021/01/25 03:24:51;;;;;;;56.45;30.23;;;2.10;99.90;;;;;;5036552;28;20387;-89
2021/01/25 03:27:16;;;;;;;50.58;30.25;;;2.10;99.90;;;;;;5035385;28;20395;-89
2021/01/25 03:29:42;;;;;;;49.10;30.52;;;1.90;99.90;;;;;;5034661;28;20033;-90
2021/01/25 03:32:08;;;;;;;48.00;28.48;;;1.90;99.90;;;;;;5035012;28;20025;-89
2021/01/25 03:34:33;;;;;;;49.92;30.52;;;1.90;99.90;;;;;;5018812;28;20369;-90
2021/01/25 03:36:59;;;;;;;54.63;32.90;;;2.00;99.90;;;;;;5034559;28;20395;-89
2021/01/25 03:39:25;;;;;;;54.75;29.88;;;1.90;99.90;;;;;;5034898;28;20403;-89
2021/01/25 03:41:51;;;;;;;51.83;31.05;;;1.90;99.90;;;;;;5037107;28;20025;-90
2021/01/25 03:44:16;;;;;;;54.75;30.88;;;1.80;99.90;;;;;;5034820;28;20095;-89
2021/01/25 03:46:51;;;;;;;45.97;28.90;;;1.80;99.90;;;;;;5036282;28;20095;-90
2021/01/25 03:49:17;;;;;;;49.55;29.75;;;1.70;99.90;;;;;;5018235;28;20472;-89
2021/01/25 03:51:43;;;;;;;54.33;32.72;;;1.70;99.90;;;;;;5001690;28;20040;-90
2021/01/25 03:54:10;;;;;;;47.05;28.50;;;1.70;99.90;;;;;;5018857;28;20387;-89
2021/01/25 03:56:36;;;;;;;52.17;29.20;;;1.70;99.90;;;;;;5035569;28;20029;-89
2021/01/25 03:59:02;;;;;;;54.58;30.77;;;1.70;99.90;;;;;;5018477;28;20090;-89
2021/01/25 04:01:28;;;;;;;49.42;30.35;;;1.70;99.90;;;;;;5018704;28;20060;-89
2021/01/25 04:03:54;;;;;;;49.55;30.10;;;1.70;99.90;;;;;;5002288;28;20036;-89
2021/01/25 04:06:22;;;;;;;52.90;30.27;;;1.80;99.90;;;;;;5001611;28;20518;-90
2021/01/25 04:08:48;;;;;;;62.72;29.45;;;1.90;99.90;;;;;;5017542;28;20025;-90
2021/01/25 04:11:17;;;;;;;46.33;28.05;;;2.00;99.90;;;;;;5017665;28;20030;-89
2021/01/25 04:13:43;;;;;;;50.88;28.73;;;2.00;99.90;;;;;;5035386;28;20033;-89
2021/01/25 04:16:09;;;;;;;50.83;28.52;;;2.10;99.90;;;;;;4984689;28;20037;-89
2021/01/25 04:18:34;;;;;;;46.85;28.25;;;2.10;99.90;;;;;;5017015;28;20038;-89
2021/01/25 04:21:01;;;;;;;46.78;27.65;;;2.10;99.90;;;;;;5017373;28;20025;-89
2021/01/25 04:23:29;;;;;;;45.55;28.85;;;2.10;99.90;;;;;;5035099;28;20079;-89
2021/01/25 04:25:55;;;;;;;44.72;28.05;;;2.10;99.90;;;;;;5016957;28;20035;-89
2021/01/25 04:28:20;;;;;;;43.65;26.60;;;2.10;99.90;;;;;;5001065;28;20033;-90
2021/01/25 04:30:48;;;;;;;48.38;28.52;;;2.10;99.90;;;;;;5017418;28;20030;-89
2021/01/25 04:33:15;;;;;;;53.58;29.55;;;2.10;99.90;;;;;;5000449;28;20121;-89
2021/01/25 04:35:41;;;;;;;50.38;28.98;;;2.20;99.90;;;;;;5017505;28;20171;-89
2021/01/25 04:38:08;;;;;;;47.90;29.00;;;2.20;99.90;;;;;;4984623;28;20549;-89
2021/01/25 04:40:34;;;;;;;49.72;29.75;;;2.20;99.90;;;;;;5034760;28;20040;-89
2021/01/25 04:43:01;;;;;;;48.45;30.20;;;2.10;99.90;;;;;;5000697;28;20092;-89
2021/01/25 04:45:27;;;;;;;48.20;27.83;;;2.00;99.90;;;;;;5022692;28;20077;-89
2021/01/25 04:47:56;;;;;;;47.45;29.50;;;2.10;99.90;;;;;;5016573;28;20115;-89
2021/01/25 04:50:22;;;;;;;45.17;26.60;;;2.10;99.90;;;;;;5016990;28;20034;-89
2021/01/25 04:52:52;;;;;;;48.78;27.55;;;2.00;99.90;;;;;;5033126;28;20029;-89
2021/01/25 04:55:18;;;;;;;47.08;28.42;;;2.00;99.90;;;;;;5016996;28;20075;-89
2021/01/25 04:57:47;;;;;;;50.20;30.35;;;1.90;99.90;;;;;;5035347;28;20140;-89
2021/01/25 05:00:18;;;;;;;52.50;29.65;;;1.70;99.90;;;;;;5035603;28;20033;-89
2021/01/25 05:02:44;;;;;;;57.90;29.90;;;1.70;99.90;;;;;;5038955;28;20028;-90
2021/01/25 05:05:10;;;;;;;45.63;29.65;;;1.80;99.90;;;;;;5051191;28;20021;-89
2021/01/25 05:07:37;;;;;;;51.40;30.48;;;1.80;99.90;;;;;;5034262;28;20048;-89
2021/01/25 05:10:08;;;;;;;54.00;31.48;;;1.80;99.90;;;;;;5033721;28;20041;-90
2021/01/25 05:12:46;;;;;;;51.58;31.33;;;1.80;99.90;;;;;;5019625;28;20043;-89
2021/01/25 05:15:27;;;;;;;48.65;29.65;;;1.80;99.90;;;;;;5034818;28;20068;-89
2021/01/25 05:17:54;;;;;;;48.78;30.00;;;1.80;99.90;;;;;;5016511;28;20110;-90
2021/01/25 05:20:27;;;;;;;47.08;29.33;;;1.80;99.90;;;;;;5032841;28;20065;-89
2021/01/25 05:22:54;;;;;;;57.95;30.88;;;1.80;99.90;;;;;;5017304;28;20396;-94
2021/01/25 05:25:25;;;;;;;49.42;29.38;;;1.90;99.90;;;;;;5033387;28;20030;-89
2021/01/25 05:27:50;;;;;;;52.63;29.85;;;1.90;99.90;;;;;;5000365;28;20038;-90
2021/01/25 05:30:16;;;;;;;48.75;29.15;;;1.90;99.90;;;;;;5015343;28;20033;-90
2021/01/25 05:32:52;;;;;;;51.63;29.77;;;1.90;99.90;;;;;;4999919;28;20468;-89
2021/01/25 05:35:23;;;;;;;46.03;28.48;;;1.80;99.90;;;;;;5032684;28;20399;-89
2021/01/25 05:37:57;;;;;;;47.10;27.88;;;1.70;99.90;;;;;;5032682;28;20476;-89
2021/01/25 05:40:25;;;;;;;49.35;28.33;;;1.60;99.90;;;;;;5033637;28;20041;-89
2021/01/25 05:42:51;;;;;;;48.92;29.20;;;1.50;99.90;;;;;;5032546;28;20087;-90
2021/01/25 05:45:18;;;;;;;47.40;28.20;;;1.50;99.90;;;;;;5017613;28;20049;-90
2021/01/25 05:47:46;;;;;;;46.17;27.80;;;1.50;99.90;;;;;;4999997;28;20037;-90
2021/01/25 05:50:24;;;;;;;48.22;27.77;;;1.60;99.90;;;;;;5032513;28;20021;-90
2021/01/25 05:52:51;;;;;;;49.03;27.92;;;1.50;99.90;;;;;;5033159;28;20026;-90
2021/01/25 05:55:16;;;;;;;49.78;30.02;;;1.40;99.90;;;;;;5015573;28;20087;-90
2021/01/25 05:57:42;;;;;;;58.05;29.27;;;1.30;99.90;;;;;;5016045;28;20428;-90
2021/01/25 06:00:08;;;;;;;48.55;29.70;;;1.30;99.90;;;;;;4999505;28;20087;-89
2021/01/25 06:02:40;;;;;;;47.70;28.42;;;1.30;99.90;;;;;;4999758;28;20034;-88
2021/01/25 06:05:08;;;;;;;42.28;26.60;;;1.40;99.90;;;;;;5034894;28;20033;-87
2021/01/25 06:07:34;;;;;;;47.65;27.42;;;1.40;99.90;;;;;;5035872;28;20033;-87
2021/01/25 06:10:03;;;;;;;47.35;27.98;;;1.30;99.90;;;;;;5017356;28;20403;-88
2021/01/25 06:12:50;;;;;;;49.63;28.38;;;1.20;99.90;;;;;;5034949;28;20025;-89
2021/01/25 06:15:19;;;;;;;48.30;28.08;;;1.30;99.90;;;;;;5034697;28;20056;-89
2021/01/25 06:17:47;;;;;;;47.40;28.67;;;1.30;99.90;;;;;;5032493;28;20053;-88
2021/01/25 06:20:17;;;;;;;49.35;28.30;;;1.20;99.90;;;;;;5031965;28;20060;-88
2021/01/25 06:22:46;;;;;;;51.38;28.58;;;1.10;99.90;;;;;;5033614;28;20499;-89
2021/01/25 06:25:14;;;;;;;48.28;28.67;;;1.20;99.90;;;;;;5033393;28;20041;-89
2021/01/25 06:27:42;;;;;;;48.92;29.08;;;1.20;99.90;;;;;;5019134;28;20505;-89
2021/01/25 06:30:13;;;;;;;54.53;30.25;;;1.20;99.90;;;;;;5035738;28;20094;-91
2021/01/25 06:32:43;;;;;;;48.40;29.30;;;1.20;99.90;;;;;;5034639;28;20029;-89
2021/01/25 06:35:15;;;;;;;48.67;28.38;;;1.20;99.90;;;;;;5031872;28;20479;-90
2021/01/25 06:37:43;;;;;;;49.33;28.55;;;1.10;99.90;;;;;;5032376;28;20495;-90
2021/01/25 06:40:11;;;;;;;50.13;29.33;;;1.10;99.90;;;;;;5015986;28;20502;-89
2021/01/25 06:42:42;;;;;;;49.30;29.23;;;1.10;99.90;;;;;;5035517;28;20026;-90
2021/01/25 06:45:08;;;;;;;50.97;28.77;;;1.10;99.90;;;;;;5035889;28;20053;-90
2021/01/25 06:47:36;;;;;;;49.25;28.60;;;1.10;99.90;;;;;;5035687;28;20504;-89
2021/01/25 06:50:06;;;;;;;47.47;29.38;;;1.00;99.90;;;;;;5039775;28;20033;-89
2021/01/25 06:52:45;;;;;;;49.40;29.85;;;1.00;99.90;;;;;;5041133;28;20079;-89
2021/01/25 06:55:11;;;;;;;54.85;29.77;;;1.10;99.90;;;;;;5036509;28;20090;-90
2021/01/25 06:57:40;;;;;;;45.85;28.05;;;1.10;99.90;;;;;;5039249;28;20033;-90
2021/01/25 07:00:11;;;;;;;50.35;28.58;;;1.10;99.90;;;;;;5039082;28;20037;-89
2021/01/25 07:03:00;;;;;;;49.72;28.70;;;1.10;99.90;;;;;;5039017;28;20067;-89
2021/01/25 07:05:27;;;;;;;47.47;28.00;;;1.00;99.90;;;;;;5020065;28;20089;-88
2021/01/25 07:08:16;;;;;;;54.30;30.52;;;1.00;99.90;;;;;;5036148;28;20072;-90
2021/01/25 07:10:49;;;;;;;53.83;30.70;;;1.00;99.90;;;;;;5036985;28;20031;-89
2021/01/25 07:13:15;;;;;;;53.95;30.63;;;0.90;99.90;;;;;;5036130;28;20040;-89
2021/01/25 07:15:41;;;;;;;53.35;30.52;;;0.90;99.90;;;;;;5004102;28;20403;-89
2021/01/25 07:18:07;;;;;;;54.83;30.10;;;0.90;99.90;;;;;;5021749;28;20030;-89
2021/01/25 07:20:34;;;;;;;53.88;29.55;;;0.90;99.90;;;;;;5048598;28;20030;-88
2021/01/25 07:23:03;;;;;;;55.95;31.10;;;0.90;99.90;;;;;;5041800;28;20083;-89
2021/01/25 07:25:31;;;;;;;52.00;30.58;;;0.90;99.90;;;;;;5036768;28;20026;-88
2021/01/25 07:28:03;;;;;;;57.70;31.02;;;0.90;99.90;;;;;;5021709;28;20066;-88
2021/01/25 07:30:32;;;;;;;50.90;29.85;;;0.90;99.90;;;;;;5036252;28;20048;-89
2021/01/25 07:33:04;;;;;;;57.10;33.28;;;1.00;99.90;;;;;;5035448;28;20026;-89
2021/01/25 07:35:31;;;;;;;54.88;31.73;;;1.00;99.90;;;;;;5035349;28;20079;-89
2021/01/25 07:37:57;;;;;;;55.92;30.50;;;1.10;99.90;;;;;;5035309;28;20033;-90
2021/01/25 07:40:23;;;;;;;47.22;30.13;;;1.10;99.90;;;;;;5018623;28;20040;-90
2021/01/25 07:42:49;;;;;;;55.67;30.65;;;1.10;99.90;;;;;;5036916;28;20232;-89
2021/01/25 07:45:18;;;;;;;55.10;30.77;;;1.00;99.90;;;;;;5034628;28;20160;-90
2021/01/25 07:47:46;;;;;;;53.80;31.45;;;1.00;99.90;;;;;;5018876;28;20041;-88
2021/01/25 07:50:13;;;;;;;54.40;32.00;;;1.00;99.90;;;;;;5001826;28;20037;-89
2021/01/25 07:52:39;;;;;;;56.67;32.25;;;1.00;99.90;;;;;;5019143;28;20044;-88
2021/01/25 07:55:15;;;;;;;53.33;31.70;;;1.00;99.90;;;;;;5038415;28;20026;-89
2021/01/25 07:57:43;;;;;;;52.35;31.85;;;1.10;99.90;;;;;;5037041;28;20060;-88
2021/01/25 08:00:20;;;;;;;53.28;32.00;;;1.10;99.90;;;;;;5037095;28;20585;-92
2021/01/25 08:02:54;;;;;;;58.20;31.63;;;1.00;99.90;;;;;;5039954;28;20041;-88
2021/01/25 08:05:22;;;;;;;52.45;31.50;;;1.00;99.90;;;;;;5040427;28;20025;-88
2021/01/25 08:07:49;;;;;;;55.38;31.15;;;1.00;99.90;;;;;;5035078;28;20038;-89
2021/01/25 08:10:15;;;;;;;51.63;31.63;;;0.90;99.90;;;;;;5035193;28;20030;-88
2021/01/25 08:12:46;;;;;;;50.10;31.40;;;0.90;99.90;;;;;;5037490;28;20543;-89
2021/01/25 08:15:18;;;;;;;55.42;31.70;;;1.00;99.90;;;;;;5035353;28;20418;-90
2021/01/25 08:17:51;;;;;;;57.45;31.73;;;1.00;99.90;;;;;;5034037;28;20398;-90
2021/01/25 08:20:20;;;;;;;56.13;32.78;;;1.00;99.90;;;;;;5033749;28;20029;-89
2021/01/25 08:23:03;;;;;;;55.30;31.48;;;1.00;99.90;;;;;;5036110;28;20033;-89
2021/01/25 08:25:29;;;;;;;54.28;31.67;;;1.00;99.90;;;;;;5037799;28;20025;-89
2021/01/25 08:28:14;;;;;;;48.63;30.40;;;1.00;99.90;;;;;;5017642;28;20033;-89
2021/01/25 08:30:43;;;;;;;50.47;30.58;;;1.10;99.90;;;;;;5033822;28;20075;-88
2021/01/25 08:33:11;;;;;;;53.67;30.98;;;1.20;99.90;;;;;;5033718;28;20036;-89
2021/01/25 08:35:53;;;;;;;52.88;31.25;;;1.40;99.90;;;;;;5033932;28;20147;-88
2021/01/25 08:38:37;;;;;;;52.92;32.38;;;1.50;99.90;;;;;;5034871;28;20060;-89
2021/01/25 08:41:28;;;;;;;51.53;29.60;;;1.50;99.90;;;;;;5033966;28;20124;-88
2021/01/25 08:43:59;;;;;;;49.03;29.85;;;1.60;99.90;;;;;;5033574;28;20029;-88
2021/01/25 08:46:32;;;;;;;47.35;28.52;;;1.70;99.90;;;;;;5034982;28;20115;-89
2021/01/25 08:49:11;;;;;;;48.40;27.60;;;1.80;99.90;;;;;;5017610;28;20100;-88
2021/01/25 08:51:38;;;;;;;45.75;29.08;;;2.00;99.90;;;;;;5017319;28;20099;-88
2021/01/25 08:54:39;;;;;;;50.53;28.70;;;2.30;99.90;;;;;;5016860;28;20026;-89
2021/01/25 08:57:32;;;;;;;41.42;26.77;;;2.90;99.90;;;;;;4904834;29;20560;-89
2021/01/25 09:00:13;;;;;;;42.42;26.90;;;3.70;99.90;;;;;;5019620;28;20145;-89
2021/01/25 09:02:39;;;;;;;41.47;26.05;;;4.90;99.90;;;;;;5022646;28;20057;-89
2021/01/25 09:05:07;;;;;;;42.88;25.23;;;5.90;99.90;;;;;;5018969;28;20063;-89
2021/01/25 09:07:33;;;;;;;39.63;24.23;;;6.80;99.90;;;;;;5001754;28;20033;-89
2021/01/25 09:09:59;;;;;;;36.22;23.65;;;7.30;99.90;;;;;;5017386;28;20036;-88
2021/01/25 09:12:24;;;;;;;35.92;22.67;;;7.40;99.90;;;;;;5017978;28;20030;-88
2021/01/25 09:14:50;;;;;;;35.45;23.08;;;6.70;99.90;;;;;;5002697;28;20036;-88
2021/01/25 09:17:16;;;;;;;34.53;23.42;;;6.10;99.90;;;;;;5003806;28;20038;-89
2021/01/25 09:19:42;;;;;;;39.97;23.40;;;5.60;99.90;;;;;;5018438;28;20037;-89
2021/01/25 09:22:11;;;;;;;36.78;21.73;;;5.20;99.90;;;;;;4985002;28;20053;-89
2021/01/25 09:24:40;;;;;;;34.67;22.20;;;4.80;99.90;;;;;;5034161;28;20057;-88
2021/01/25 09:27:07;;;;;;;37.00;23.13;;;4.50;99.90;;;;;;5016708;28;20068;-88
2021/01/25 09:29:33;;;;;;;39.08;21.35;;;4.30;99.90;;;;;;5016222;28;20031;-89
2021/01/25 09:32:01;;;;;;;38.00;22.55;;;4.10;99.90;;;;;;5034372;28;20383;-89
2021/01/25 09:34:26;;;;;;;37.80;23.08;;;3.90;99.90;;;;;;5016937;28;20459;-89
2021/01/25 09:36:52;;;;;;;38.22;23.63;;;3.90;99.90;;;;;;5004189;28;20072;-88
2021/01/25 09:39:21;;;;;;;34.47;22.55;;;3.90;99.90;;;;;;5015639;28;20064;-88
2021/01/25 09:41:48;;;;;;;42.20;24.30;;;3.80;99.90;;;;;;5020777;28;20052;-88
2021/01/25 09:44:18;;;;;;;38.58;24.08;;;3.70;99.90;;;;;;4986714;28;20034;-89
2021/01/25 09:46:47;;;;;;;36.00;23.38;;;3.70;99.90;;;;;;5034826;28;20459;-89
2021/01/25 09:49:16;;;;;;;39.67;24.15;;;3.70;99.90;;;;;;5018466;28;20621;-89
2021/01/25 09:51:42;;;;;;;40.40;22.77;;;3.80;99.90;;;;;;5037630;28;20025;-87
2021/01/25 09:54:10;;;;;;;46.75;25.63;;;3.80;99.90;;;;;;5038179;28;20060;-88
2021/01/25 09:56:40;;;;;;;38.30;23.60;;;3.80;99.90;;;;;;5034152;28;20379;-88
2021/01/25 09:59:06;;;;;;;36.95;22.73;;;3.80;99.90;;;;;;5034797;28;20545;-88
2021/01/25 10:01:32;;;;;;;42.70;25.27;;;3.90;99.90;;;;;;5032587;28;20022;-89
2021/01/25 10:03:58;;;;;;;44.08;24.83;;;3.90;99.90;;;;;;5032735;28;20522;-87
2021/01/25 10:06:27;;;;;;;40.15;23.52;;;3.80;99.90;;;;;;5033120;28;20071;-88
2021/01/25 10:08:55;;;;;;;40.60;23.80;;;3.90;99.90;;;;;;5016810;28;20407;-87
2021/01/25 10:11:22;;;;;;;34.60;19.52;;;4.00;99.90;;;;;;5032725;28;20036;-87
2021/01/25 10:13:47;;;;;;;37.55;21.08;;;4.00;99.90;;;;;;5032971;28;20088;-87
2021/01/25 10:16:13;;;;;;;34.90;20.75;;;4.00;99.90;;;;;;5033269;28;20079;-86
2021/01/25 10:18:39;;;;;;;35.95;20.50;;;4.00;99.90;;;;;;5021417;28;20044;-86
2021/01/25 10:21:05;;;;;;;28.73;19.45;;;4.10;99.90;;;;;;5020282;28;20036;-85
2021/01/25 10:23:30;;;;;;;29.83;18.10;;;4.20;99.90;;;;;;5019585;28;20025;-85
2021/01/25 10:25:56;;;;;;;31.80;16.45;;;4.10;99.90;;;;;;5036544;28;20502;-86
2021/01/25 10:28:22;;;;;;;29.40;14.55;;;4.20;99.90;;;;;;5036790;28;20056;-87
2021/01/25 10:30:48;;;;;;;29.35;16.13;;;4.20;99.90;;;;;;5036342;28;20543;-88
2021/01/25 10:33:14;;;;;;;24.58;15.07;;;4.30;99.90;;;;;;5037182;28;20029;-80
2021/01/25 10:35:40;;;;;;;33.35;16.98;;;4.40;99.90;;;;;;5036899;28;20025;-88
2021/01/25 10:38:06;;;;;;;26.40;15.20;;;4.40;99.90;;;;;;5020601;28;20061;-89
2021/01/25 10:40:32;;;;;;;25.83;16.25;;;4.50;99.90;;;;;;5020658;28;20095;-89
2021/01/25 10:42:57;;;;;;;28.83;15.07;;;4.50;99.90;;;;;;5004782;28;20033;-89
2021/01/25 10:45:26;;;;;;;24.10;14.82;;;4.60;99.90;;;;;;5004448;28;20034;-88
2021/01/25 10:48:03;;;;;;;;;;;;;;;;;;;;;
2021/01/25 10:50:29;;;;;;;23.60;14.27;;;4.60;99.90;;;;;;5038680;28;20021;-89
2021/01/25 10:52:57;;;;;;;22.13;12.77;;;4.60;99.90;;;;;;5033039;28;20048;-90
2021/01/25 10:55:25;;;;;;;21.92;12.27;;;4.70;99.90;;;;;;5023012;28;20029;-90
2021/01/25 10:57:56;;;;;;;17.23;10.13;;;4.70;99.90;;;;;;5023289;28;20036;-90
2021/01/25 11:00:22;;;;;;;18.48;10.10;;;4.70;99.90;;;;;;5026174;28;20172;-89
2021/01/25 11:02:49;;;;;;;17.13;7.60;;;4.70;99.90;;;;;;5040990;28;20032;-90
2021/01/25 11:05:18;;;;;;;9.68;4.90;;;4.70;99.90;;;;;;5026071;28;20026;-89
2021/01/25 11:07:44;;;;;;;6.47;3.80;;;4.70;99.90;;;;;;5044700;28;20038;-89
2021/01/25 11:10:14;;;;;;;5.40;2.78;;;4.80;99.90;;;;;;5048279;28;20079;-89
2021/01/25 11:12:40;;;;;;;5.93;2.90;;;4.80;99.90;;;;;;5055521;28;20026;-91
2021/01/25 11:15:07;;;;;;;11.15;4.03;;;4.80;99.90;;;;;;5043120;28;20059;-89
2021/01/25 11:17:33;;;;;;;8.98;2.72;;;4.90;99.90;;;;;;5042609;28;20045;-94
2021/01/25 11:19:59;;;;;;;3.38;1.50;;;4.90;99.90;;;;;;5037964;28;20123;-89
2021/01/25 11:22:27;;;;;;;3.55;1.42;;;5.00;99.90;;;;;;5036121;28;20045;-89
2021/01/25 11:24:52;;;;;;;3.20;1.40;;;5.10;99.90;;;;;;5053606;28;20025;-89
2021/01/25 11:27:20;;;;;;;3.00;1.50;;;5.20;99.90;;;;;;5033105;28;20160;-90
2021/01/25 11:29:46;;;;;;;5.10;2.33;;;5.20;99.90;;;;;;5035893;28;20025;-90
2021/01/25 11:32:12;;;;;;;6.25;1.58;;;5.20;99.90;;;;;;5043302;28;20084;-89
2021/01/25 11:34:40;;;;;;;3.72;2.00;;;5.20;99.90;;;;;;5060089;28;20061;-94
2021/01/25 11:37:09;;;;;;;4.05;1.27;;;5.30;99.90;;;;;;5042892;28;20097;-91
2021/01/25 11:39:36;;;;;;;4.22;1.50;;;5.40;99.90;;;;;;5042106;28;20040;-95
2021/01/25 11:42:02;;;;;;;2.97;1.38;;;5.50;99.90;;;;;;5042307;28;20034;-89
2021/01/25 11:44:31;;;;;;;2.22;1.13;;;5.60;99.90;;;;;;5042542;28;20020;-90
2021/01/25 11:46:56;;;;;;;2.72;1.05;;;5.70;99.90;;;;;;5047319;28;20120;-88
2021/01/25 11:49:25;;;;;;;4.50;1.63;;;5.80;99.90;;;;;;5046604;28;20036;-90
2021/01/25 11:51:50;;;;;;;4.18;1.20;;;5.90;99.90;;;;;;5042732;28;20049;-89
2021/01/25 11:54:18;;;;;;;1.52;1.25;;;5.80;99.90;;;;;;5040665;28;20089;-88
2021/01/25 11:56:47;;;;;;;5.18;1.27;;;5.80;99.90;;;;;;5041283;28;20187;-88
2021/01/25 11:59:13;;;;;;;3.03;1.40;;;5.80;99.90;;;;;;5039319;28;20563;-89
2021/01/25 12:01:38;;;;;;;9.00;1.67;;;5.80;99.90;;;;;;5024654;28;20056;-90
2021/01/25 12:04:11;;;;;;;7.75;1.50;;;5.90;99.90;;;;;;5044099;28;20022;-89
2021/01/25 12:06:36;;;;;;;6.97;1.77;;;5.80;99.90;;;;;;5043243;28;20025;-90
2021/01/25 12:09:05;;;;;;;5.70;1.85;;;5.70;99.90;;;;;;5039860;28;20030;-87
2021/01/25 12:11:30;;;;;;;10.13;2.55;;;5.70;99.90;;;;;;5036993;28;20033;-87
2021/01/25 12:13:56;;;;;;;12.77;4.05;;;5.60;99.90;;;;;;5035295;28;20581;-87
2021/01/25 12:16:27;;;;;;;7.43;2.95;;;5.30;99.90;;;;;;5035435;28;20033;-88
2021/01/25 12:18:55;;;;;;;5.68;2.00;;;5.20;99.90;;;;;;5035922;28;20495;-88
2021/01/25 12:21:21;;;;;;;6.93;2.00;;;5.20;99.90;;;;;;5018312;28;20033;-88
2021/01/25 12:23:51;;;;;;;9.88;2.15;;;5.20;99.90;;;;;;5034312;28;20387;-88
2021/01/25 12:26:16;;;;;;;6.30;2.15;;;5.30;99.90;;;;;;5018350;28;20091;-87
2021/01/25 12:28:45;;;;;;;5.85;2.45;;;5.30;99.90;;;;;;5033542;28;20033;-87
2021/01/25 12:31:10;;;;;;;7.55;2.97;;;5.50;99.90;;;;;;5033839;28;20125;-87
2021/01/25 12:33:38;;;;;;;8.52;2.28;;;5.60;99.90;;;;;;5017763;28;20479;-88
2021/01/25 12:36:04;;;;;;;12.32;2.35;;;5.80;99.90;;;;;;5033618;28;20108;-88
2021/01/25 12:38:30;;;;;;;8.23;2.05;;;5.80;99.90;;;;;;5033655;28;20463;-88
2021/01/25 12:40:58;;;;;;;11.57;2.22;;;5.80;99.90;;;;;;5033226;28;20120;-88
2021/01/25 12:43:24;;;;;;;9.57;2.30;;;5.70;99.90;;;;;;5033958;28;20033;-88
2021/01/25 12:45:57;;;;;;;6.47;2.17;;;5.50;99.90;;;;;;5017373;28;20054;-88